createdAt,value
2022-08-07T00:01:44.419Z,74.49
2022-08-07T00:04:16.679Z,74.20
2022-08-07T00:06:52.795Z,74.58
2022-08-07T00:09:22.804Z,74.65
2022-08-07T00:11:55.928Z,74.70
2022-08-07T00:14:31.035Z,74.67
2022-08-07T00:17:02.539Z,74.74
2022-08-07T00:19:59.905Z,74.82
2022-08-07T00:22:34.501Z,75.00
2022-08-07T00:25:06.941Z,75.02
2022-08-07T00:27:52.244Z,75.01
2022-08-07T00:30:28.139Z,75.09
2022-08-07T00:32:58.300Z,75.03
2022-08-07T00:35:29.625Z,75.13
2022-08-07T00:37:59.554Z,75.27
2022-08-07T00:40:39.409Z,75.46
2022-08-07T00:43:58.749Z,75.37
2022-08-07T00:45:59.220Z,75.48
2022-08-07T00:48:30.994Z,75.51
2022-08-07T00:51:02.988Z,75.75
2022-08-07T00:53:38.608Z,75.56
2022-08-07T00:56:15.467Z,75.78
2022-08-07T00:58:47.096Z,75.88
2022-08-07T01:01:20.362Z,75.82
2022-08-07T01:03:55.766Z,76.07
2022-08-07T01:06:30.279Z,76.05
2022-08-07T01:09:01.148Z,76.03
2022-08-07T01:12:23.439Z,76.07
2022-08-07T01:14:21.301Z,76.24
2022-08-07T01:16:59.188Z,76.18
2022-08-07T01:19:32.211Z,76.47
2022-08-07T01:22:03.988Z,76.32
2022-08-07T01:24:37.604Z,76.69
2022-08-07T01:27:06.514Z,76.53
2022-08-07T01:29:48.365Z,76.59
2022-08-07T01:32:19.411Z,76.65
2022-08-07T01:34:51.895Z,76.78
2022-08-07T01:37:22.045Z,76.66
2022-08-07T01:39:50.679Z,76.79
2022-08-07T01:42:38.474Z,76.95
2022-08-07T01:45:16.085Z,77.07
2022-08-07T01:48:18.426Z,77.14
2022-08-07T01:50:40.207Z,77.13
2022-08-07T01:53:21.143Z,77.28
2022-08-07T01:55:56.950Z,77.18
2022-08-07T01:58:33.782Z,77.24
2022-08-07T02:01:25.537Z,77.36
2022-08-07T02:04:08.654Z,77.34
2022-08-07T02:06:39.144Z,77.45
2022-08-07T02:09:51.900Z,77.42
2022-08-07T02:12:17.692Z,77.55
2022-08-07T02:14:51.270Z,77.36
2022-08-07T02:17:27.478Z,77.46
2022-08-07T02:20:07.359Z,77.70
2022-08-07T02:22:47.247Z,77.71
2022-08-07T02:26:30.759Z,77.48
2022-08-07T02:28:25.725Z,77.50
2022-08-07T02:30:56.757Z,77.65
2022-08-07T02:33:41.869Z,77.84
2022-08-07T02:36:28.181Z,77.77
2022-08-07T02:39:16.388Z,77.71
2022-08-07T02:41:55.144Z,77.78
2022-08-07T02:44:34.525Z,77.97
2022-08-07T02:47:06.748Z,77.92
2022-08-07T02:49:58.840Z,78.03
2022-08-07T02:52:30.976Z,77.98
2022-08-07T02:55:27.342Z,78.04
2022-08-07T02:58:03.924Z,77.92
2022-08-07T03:00:39.131Z,77.97
2022-08-07T03:03:13.430Z,78.15
2022-08-07T03:05:42.856Z,78.01
2022-08-07T03:08:12.221Z,78.17
2022-08-07T03:10:47.038Z,78.37
2022-08-07T03:13:19.706Z,78.17
2022-08-07T03:15:56.299Z,78.24
2022-08-07T03:18:34.661Z,78.15
2022-08-07T03:21:08.867Z,78.40
2022-08-07T03:24:20.998Z,78.32
2022-08-07T03:26:33.982Z,78.37
2022-08-07T03:29:10.402Z,78.33
2022-08-07T03:31:42.295Z,78.51
2022-08-07T03:34:18.485Z,78.40
2022-08-07T03:36:53.660Z,78.57
2022-08-07T03:39:56.550Z,78.49
2022-08-07T03:42:13.232Z,78.52
2022-08-07T03:44:47.282Z,78.54
2022-08-07T03:47:22.848Z,78.56
2022-08-07T03:49:52.471Z,78.77
2022-08-07T03:52:26.468Z,78.74
2022-08-07T03:55:06.131Z,78.67
2022-08-07T03:59:05.757Z,78.70
2022-08-07T04:00:29.210Z,78.68
2022-08-07T04:02:59.900Z,78.78
2022-08-07T04:05:40.541Z,78.97
2022-08-07T04:08:16.266Z,79.06
2022-08-07T04:10:54.600Z,78.90
2022-08-07T04:14:33.005Z,78.93
2022-08-07T04:16:31.310Z,78.98
2022-08-07T04:19:04.352Z,79.10
2022-08-07T04:21:58.841Z,79.18
2022-08-07T04:24:34.134Z,78.92
2022-08-07T04:27:20.695Z,78.99
2022-08-07T04:30:01.260Z,79.09
2022-08-07T04:32:35.116Z,79.09
2022-08-07T04:35:05.765Z,78.90
2022-08-07T04:38:00.779Z,79.02
2022-08-07T04:40:30.109Z,78.90
2022-08-07T04:43:01.846Z,78.99
2022-08-07T04:45:52.085Z,79.05
2022-08-07T04:48:44.702Z,78.95
2022-08-07T04:51:27.600Z,79.09
2022-08-07T04:54:06.716Z,78.95
2022-08-07T04:58:12.788Z,79.01
2022-08-07T05:00:11.510Z,79.11
2022-08-07T05:02:33.326Z,78.81
2022-08-07T05:05:11.911Z,78.97
2022-08-07T05:08:07.093Z,78.74
2022-08-07T05:10:42.876Z,78.93
2022-08-07T05:14:56.260Z,78.59
2022-08-07T05:16:11.125Z,78.58
2022-08-07T05:18:48.269Z,78.55
2022-08-07T05:21:58.997Z,78.67
2022-08-07T05:24:17.113Z,78.23
2022-08-07T05:26:47.833Z,78.39
2022-08-07T05:29:19.065Z,78.15
2022-08-07T05:31:52.690Z,78.16
2022-08-07T05:34:26.411Z,78.30
2022-08-07T05:36:57.991Z,78.25
2022-08-07T05:40:17.949Z,77.88
2022-08-07T05:42:33.255Z,77.71
2022-08-07T05:45:14.080Z,76.85
2022-08-07T05:48:02.383Z,76.29
2022-08-07T05:50:33.898Z,75.79
2022-08-07T05:53:04.133Z,74.92
2022-08-07T05:56:03.528Z,74.53
2022-08-07T05:58:36.394Z,73.97
2022-08-07T06:01:10.592Z,73.93
2022-08-07T06:03:56.889Z,74.12
2022-08-07T06:06:32.635Z,74.17
2022-08-07T06:09:04.632Z,74.03
2022-08-07T06:11:34.714Z,74.06
2022-08-07T06:14:12.014Z,74.26
2022-08-07T06:16:50.226Z,73.92
2022-08-07T06:19:57.966Z,74.04
2022-08-07T06:22:14.759Z,73.91
2022-08-07T06:24:57.930Z,73.78
2022-08-07T06:27:44.232Z,73.39
2022-08-07T06:30:32.099Z,73.20
2022-08-07T06:33:10.041Z,73.27
2022-08-07T06:35:47.908Z,73.25
2022-08-07T06:38:33.211Z,72.98
2022-08-07T06:41:13.244Z,72.40
2022-08-07T06:43:46.004Z,72.20
2022-08-07T06:46:15.678Z,72.05
2022-08-07T06:49:00.117Z,72.06
2022-08-07T06:51:34.745Z,72.38
2022-08-07T06:55:29.551Z,71.31
2022-08-07T06:56:58.028Z,70.94
2022-08-07T07:00:13.059Z,70.46
2022-08-07T07:02:48.184Z,69.93
2022-08-07T07:05:12.871Z,69.89
2022-08-07T07:08:00.195Z,69.69
2022-08-07T07:10:33.354Z,69.82
2022-08-07T07:13:13.267Z,69.40
2022-08-07T07:15:51.699Z,68.96
2022-08-07T07:18:47.158Z,68.24
2022-08-07T07:21:19.355Z,68.57
2022-08-07T07:24:05.991Z,67.51
2022-08-07T07:26:40.668Z,66.79
2022-08-07T07:29:40.024Z,66.20
2022-08-07T07:32:09.187Z,65.65
2022-08-07T07:34:44.888Z,64.80
2022-08-07T07:37:22.104Z,64.51
2022-08-07T07:40:14.682Z,64.31
2022-08-07T07:42:47.070Z,63.75
2022-08-07T07:46:36.587Z,63.10
2022-08-07T07:48:35.009Z,62.29
2022-08-07T07:51:08.100Z,61.83
2022-08-07T07:53:51.955Z,61.39
2022-08-07T07:56:30.421Z,60.53
2022-08-07T07:59:02.301Z,60.23
2022-08-07T08:02:02.467Z,59.88
2022-08-07T08:04:25.706Z,60.07
2022-08-07T08:06:57.096Z,60.17
2022-08-07T08:09:33.202Z,59.42
2022-08-07T08:12:50.124Z,58.90
2022-08-07T08:15:11.513Z,58.39
2022-08-07T08:17:57.334Z,57.64
2022-08-07T08:20:31.891Z,57.26
2022-08-07T08:23:19.079Z,57.15
2022-08-07T08:26:08.419Z,57.51
2022-08-07T08:28:45.163Z,57.81
2022-08-07T08:31:22.764Z,58.19
2022-08-07T08:34:02.607Z,58.46
2022-08-07T08:36:35.542Z,58.71
2022-08-07T08:39:05.439Z,59.05
2022-08-07T08:41:57.092Z,59.38
2022-08-07T08:44:44.984Z,59.71
2022-08-07T08:47:27.263Z,59.71
2022-08-07T08:50:06.033Z,59.87
2022-08-07T08:52:51.480Z,59.87
2022-08-07T08:55:53.745Z,59.82
2022-08-07T08:58:28.714Z,59.64
2022-08-07T09:01:15.188Z,59.46
2022-08-07T09:03:57.866Z,59.40
2022-08-07T09:06:48.067Z,59.29
2022-08-07T09:09:36.724Z,59.31
2022-08-07T09:12:31.244Z,59.40
2022-08-07T09:16:24.755Z,59.61
2022-08-07T09:18:28.228Z,59.78
2022-08-07T09:21:58.222Z,59.69
2022-08-07T09:24:32.713Z,59.49
2022-08-07T09:27:19.779Z,59.37
2022-08-07T09:30:04.032Z,59.09
2022-08-07T09:33:16.662Z,58.88
2022-08-07T09:36:02.738Z,59.10
2022-08-07T09:38:50.279Z,59.31
2022-08-07T09:41:43.070Z,59.38
2022-08-07T09:44:58.343Z,59.40
2022-08-07T09:47:57.844Z,59.36
2022-08-07T09:50:35.347Z,59.25
2022-08-07T09:53:08.443Z,59.01
2022-08-07T09:56:03.763Z,58.86
2022-08-07T09:59:21.979Z,58.77
2022-08-07T10:02:24.223Z,58.96
2022-08-07T10:05:29.694Z,58.64
2022-08-07T10:08:56.155Z,58.16
2022-08-07T10:12:00.970Z,58.20
2022-08-07T10:15:15.415Z,58.12
2022-08-07T10:18:08.501Z,58.10
2022-08-07T10:20:54.520Z,57.16
2022-08-07T10:24:06.343Z,56.92
2022-08-07T10:26:53.149Z,56.96
2022-08-07T10:30:06.563Z,57.16
2022-08-07T10:33:17.388Z,56.87
2022-08-07T10:36:11.278Z,55.52
2022-08-07T10:38:52.821Z,54.80
2022-08-07T10:41:51.486Z,53.31
2022-08-07T10:44:38.450Z,53.43
2022-08-07T10:47:26.891Z,53.70
2022-08-07T10:50:11.771Z,53.99
2022-08-07T10:52:56.642Z,54.56
2022-08-07T11:17:45.270Z,58.32
2022-08-07T11:20:22.539Z,58.47
2022-08-07T11:23:02.650Z,58.66
2022-08-07T11:25:42.293Z,58.76
2022-08-07T11:28:21.015Z,58.63
2022-08-07T11:31:00.594Z,58.55
2022-08-07T11:33:58.463Z,58.77
2022-08-07T11:36:49.668Z,58.60
2022-08-07T11:40:01.331Z,58.38
2022-08-07T11:42:46.029Z,58.40
2022-08-07T11:45:35.435Z,58.34
2022-08-07T11:48:38.175Z,57.90
2022-08-07T11:51:44.789Z,57.50
2022-08-07T11:54:29.850Z,57.32
2022-08-07T11:57:16.765Z,56.65
2022-08-07T12:00:19.831Z,56.01
2022-08-07T12:03:46.621Z,56.04
2022-08-07T12:06:44.831Z,56.06
2022-08-07T12:09:32.539Z,55.77
2022-08-07T12:12:11.430Z,55.28
2022-08-07T12:14:56.351Z,55.33
2022-08-07T12:17:41.603Z,55.10
2022-08-07T12:20:37.456Z,54.98
2022-08-07T12:24:05.148Z,54.73
2022-08-07T12:26:34.446Z,54.67
2022-08-07T12:29:13.964Z,54.42
2022-08-07T12:32:03.996Z,54.33
2022-08-07T12:34:37.888Z,54.37
2022-08-07T12:37:27.894Z,54.59
2022-08-07T12:40:01.006Z,54.75
2022-08-07T12:42:32.474Z,54.64
2022-08-07T12:45:08.256Z,54.58
2022-08-07T12:47:49.306Z,54.23
2022-08-07T12:50:39.126Z,53.79
2022-08-07T12:53:19.348Z,53.17
2022-08-07T12:56:04.058Z,52.55
2022-08-07T12:58:43.827Z,52.24
2022-08-07T13:01:32.693Z,51.45
2022-08-07T13:04:32.530Z,51.19
2022-08-07T13:08:12.730Z,51.62
2022-08-07T13:10:51.389Z,51.92
2022-08-07T13:13:48.864Z,52.52
2022-08-07T13:16:32.216Z,52.52
2022-08-07T13:19:18.390Z,52.44
2022-08-07T13:22:19.930Z,52.90
2022-08-07T13:25:02.471Z,53.21
2022-08-07T13:28:12.459Z,53.51
2022-08-07T13:30:40.430Z,53.67
2022-08-07T13:34:31.877Z,53.43
2022-08-07T13:36:22.119Z,52.90
2022-08-07T13:39:12.930Z,52.57
2022-08-07T13:41:55.815Z,51.73
2022-08-07T13:44:34.479Z,51.12
2022-08-07T13:47:09.142Z,51.04
2022-08-07T13:50:32.539Z,50.56
2022-08-07T13:52:40.986Z,50.67
2022-08-07T13:55:19.735Z,50.22
2022-08-07T13:58:27.977Z,50.59
2022-08-07T14:01:09.923Z,50.77
2022-08-07T14:04:08.152Z,51.12
2022-08-07T14:06:33.926Z,51.16
2022-08-07T14:09:04.654Z,51.36
2022-08-07T14:11:53.704Z,51.37
2022-08-07T14:14:40.096Z,51.37
2022-08-07T14:18:12.872Z,51.30
2022-08-07T14:20:42.699Z,51.38
2022-08-07T14:23:10.035Z,51.52
2022-08-07T14:25:47.909Z,51.30
2022-08-07T14:28:19.252Z,51.54
2022-08-07T14:30:52.330Z,51.51
2022-08-07T14:33:23.419Z,51.52
2022-08-07T14:35:58.621Z,51.62
2022-08-07T14:38:33.459Z,51.44
2022-08-07T14:41:06.147Z,51.50
2022-08-07T14:43:57.106Z,51.33
2022-08-07T14:46:33.280Z,51.03
2022-08-07T14:52:04.281Z,50.66
2022-08-07T14:54:42.274Z,50.65
2022-08-07T14:57:18.765Z,50.56
2022-08-07T15:00:05.297Z,50.42
2022-08-07T15:02:37.295Z,50.36
2022-08-07T15:05:20.094Z,50.38
2022-08-07T15:07:52.244Z,50.64
2022-08-07T15:10:26.318Z,51.04
2022-08-07T15:13:00.807Z,51.32
2022-08-07T15:15:38.785Z,51.28
2022-08-07T15:18:34.035Z,51.25
2022-08-07T15:21:58.706Z,51.11
2022-08-07T15:25:14.758Z,50.87
2022-08-07T15:27:04.817Z,50.52
2022-08-07T15:30:04.746Z,50.65
2022-08-07T15:32:39.007Z,50.86
2022-08-07T15:35:16.899Z,50.84
2022-08-07T15:38:04.645Z,51.03
2022-08-07T15:41:00.416Z,51.00
2022-08-07T15:43:56.380Z,51.03
2022-08-07T15:46:32.383Z,50.72
2022-08-07T15:49:15.112Z,50.93
2022-08-07T15:54:39.535Z,50.97
2022-08-07T15:57:39.324Z,51.05
2022-08-07T16:00:06.394Z,51.03
2022-08-07T16:02:46.931Z,51.02
2022-08-07T16:05:23.098Z,50.90
2022-08-07T16:08:33.055Z,50.44
2022-08-07T16:11:25.384Z,50.74
2022-08-07T16:14:09.011Z,50.72
2022-08-07T16:18:02.526Z,50.79
2022-08-07T16:21:04.664Z,50.96
2022-08-07T16:23:58.837Z,50.81
2022-08-07T16:27:00.028Z,50.95
2022-08-07T16:30:29.732Z,50.73
2022-08-07T16:34:02.251Z,50.94
2022-08-07T16:36:04.274Z,51.04
2022-08-07T16:39:02.368Z,51.08
2022-08-07T16:41:54.361Z,51.29
2022-08-07T16:45:14.750Z,51.38
2022-08-07T16:48:13.689Z,51.50
2022-08-07T16:51:21.850Z,51.14
2022-08-07T16:54:33.025Z,51.22
2022-08-07T16:57:28.848Z,51.22
2022-08-07T17:00:29.605Z,51.26
2022-08-07T17:03:58.069Z,51.53
2022-08-07T17:06:31.137Z,51.09
2022-08-07T17:09:14.351Z,51.54
2022-08-07T17:12:35.944Z,51.60
2022-08-07T17:15:05.978Z,51.83
2022-08-07T17:17:50.169Z,51.89
2022-08-07T17:20:32.772Z,51.97
2022-08-07T17:23:11.599Z,52.03
2022-08-07T17:25:57.264Z,51.87
2022-08-07T17:28:38.755Z,51.87
2022-08-07T17:31:26.176Z,52.05
2022-08-07T17:34:33.101Z,52.07
2022-08-07T17:37:09.582Z,52.14
2022-08-07T17:40:03.459Z,52.28
2022-08-07T17:42:59.697Z,52.34
2022-08-07T17:45:55.386Z,52.27
2022-08-07T17:48:33.610Z,52.51
2022-08-07T17:51:11.443Z,52.28
2022-08-07T17:54:02.036Z,52.30
2022-08-07T17:56:49.932Z,52.16
2022-08-07T17:59:26.881Z,52.40
2022-08-07T18:02:14.656Z,52.79
2022-08-07T18:05:20.766Z,52.97
2022-08-07T18:08:23.926Z,53.13
2022-08-07T18:12:07.334Z,53.17
2022-08-07T18:14:01.819Z,53.27
2022-08-07T18:16:35.598Z,53.29
2022-08-07T18:21:08.886Z,53.70
2022-08-07T18:22:33.612Z,53.65
2022-08-07T18:25:19.023Z,54.00
2022-08-07T18:28:35.230Z,54.43
2022-08-07T18:31:18.605Z,54.58
2022-08-07T18:34:33.815Z,54.92
2022-08-07T18:38:59.080Z,55.27
2022-08-07T18:40:42.631Z,55.63
2022-08-07T18:43:42.957Z,55.90
2022-08-07T18:46:27.097Z,56.21
2022-08-07T18:50:31.423Z,56.49
2022-08-07T18:52:34.836Z,57.25
2022-08-07T18:55:42.519Z,57.46
2022-08-07T18:58:52.222Z,58.04
2022-08-07T19:02:32.372Z,58.50
2022-08-07T19:04:54.663Z,59.00
2022-08-07T19:07:51.960Z,59.18
2022-08-07T19:10:32.010Z,59.77
2022-08-07T19:13:26.611Z,59.89
2022-08-07T19:17:01.473Z,60.37
2022-08-07T19:19:01.399Z,60.64
2022-08-07T19:21:44.123Z,60.99
2022-08-07T19:24:31.035Z,61.55
2022-08-07T19:28:29.376Z,61.55
2022-08-07T19:31:06.043Z,62.07
2022-08-07T19:32:59.371Z,62.42
2022-08-07T19:35:33.062Z,62.79
2022-08-07T19:38:15.123Z,62.97
2022-08-07T19:40:51.310Z,63.45
2022-08-07T19:43:50.172Z,63.69
2022-08-07T19:46:15.754Z,63.84
2022-08-07T19:48:57.070Z,63.99
2022-08-07T19:51:51.968Z,64.33
2022-08-07T19:54:33.607Z,64.64
2022-08-07T19:58:00.974Z,64.96
2022-08-07T20:00:08.908Z,65.25
2022-08-07T20:02:52.329Z,65.51
2022-08-07T20:05:28.696Z,65.42
2022-08-07T20:08:03.316Z,65.97
2022-08-07T20:10:55.494Z,66.32
2022-08-07T20:13:38.430Z,66.22
2022-08-07T20:16:32.349Z,66.46
2022-08-07T20:19:05.520Z,66.72
2022-08-07T20:21:42.080Z,66.91
2022-08-07T20:24:21.806Z,67.24
2022-08-07T20:26:54.451Z,67.23
2022-08-07T20:29:49.402Z,67.50
2022-08-07T20:32:27.822Z,67.86
2022-08-07T20:35:16.287Z,67.83
2022-08-07T20:37:58.935Z,68.46
2022-08-07T20:40:34.298Z,68.69
2022-08-07T20:43:14.560Z,68.79
2022-08-07T20:46:26.924Z,68.86
2022-08-07T20:49:54.543Z,69.21
2022-08-07T20:51:35.742Z,69.19
2022-08-07T20:54:08.666Z,69.46
2022-08-07T20:56:48.244Z,69.57
2022-08-07T21:00:05.065Z,70.00
2022-08-07T21:02:34.038Z,69.97
2022-08-07T21:05:10.301Z,70.26
2022-08-07T21:07:49.651Z,70.38
2022-08-07T21:10:25.114Z,70.43
2022-08-07T21:13:01.706Z,70.63
2022-08-07T21:15:58.610Z,70.40
2022-08-07T21:18:31.988Z,70.78
2022-08-07T21:21:04.124Z,70.78
2022-08-07T21:23:50.505Z,70.73
2022-08-07T21:26:43.074Z,71.20
2022-08-07T21:29:18.530Z,71.15
2022-08-07T21:32:47.132Z,71.15
2022-08-07T21:35:00.545Z,71.23
2022-08-07T21:37:58.079Z,71.19
2022-08-07T21:40:38.437Z,71.60
2022-08-07T21:43:14.878Z,71.69
2022-08-07T21:46:08.413Z,71.99
2022-08-07T21:48:55.747Z,71.73
2022-08-07T21:51:51.593Z,72.07
2022-08-07T21:54:36.348Z,72.02
2022-08-07T21:57:31.085Z,72.22
2022-08-07T22:00:23.005Z,72.03
2022-08-07T22:03:06.277Z,72.38
2022-08-07T22:05:48.629Z,72.37
2022-08-07T22:08:23.386Z,72.50
2022-08-07T22:11:01.319Z,72.56
2022-08-07T22:13:51.261Z,72.70
2022-08-07T22:16:45.678Z,72.90
2022-08-07T22:19:23.574Z,72.71
2022-08-07T22:22:18.121Z,73.04
2022-08-07T22:25:10.879Z,72.94
2022-08-07T22:28:08.319Z,73.16
2022-08-07T22:30:52.733Z,73.47
2022-08-07T22:33:53.221Z,73.15
2022-08-07T22:36:35.943Z,73.55
2022-08-07T22:39:24.179Z,73.61
2022-08-07T22:42:18.847Z,73.69
2022-08-07T22:44:58.651Z,73.83
2022-08-07T22:47:58.417Z,73.53
2022-08-07T22:50:55.491Z,73.88
2022-08-07T22:54:07.030Z,74.05
2022-08-07T22:56:36.542Z,74.04
2022-08-07T22:59:52.299Z,73.96
2022-08-07T23:02:47.643Z,74.04
2022-08-07T23:06:06.947Z,74.15
2022-08-07T23:10:04.947Z,74.20
2022-08-07T23:12:20.991Z,74.34
2022-08-07T23:16:06.796Z,74.34
2022-08-07T23:18:32.353Z,74.27
2022-08-07T23:21:16.246Z,74.67
2022-08-07T23:24:17.917Z,74.83
2022-08-07T23:27:02.930Z,75.02
2022-08-07T23:30:38.437Z,74.83
2022-08-07T23:34:34.909Z,75.04
2022-08-07T23:36:46.793Z,74.97
2022-08-07T23:39:46.675Z,75.23
2022-08-07T23:42:35.879Z,75.23
2022-08-07T23:45:33.276Z,75.37
2022-08-07T23:48:27.776Z,75.30
2022-08-07T23:51:04.879Z,75.61
2022-08-07T23:54:05.232Z,75.39
2022-08-07T23:56:53.967Z,75.38
